Time;durP1;ratioP1;P1;durP2;ratioP2;P2;SDS_P1;SDS_P2;PMS_P1;PMS_P2;Temp;Humidity;BMP_temperature;BMP_pressure;BME280_temperature;BME280_humidity;BME280_pressure;Samples;Min_cycle;Max_cycle;Signal;HPM_P1;HPM_P2
2020/12/22 00:00:47;;;;;;;1.00;1.00;;;9.40;99.90;;;;;;4917720;29;20652;-72
2020/12/22 00:03:12;;;;;;;1.30;1.20;;;9.40;99.90;;;;;;4909388;29;20271;-73
2020/12/22 00:05:38;;;;;;;0.90;0.90;;;9.40;99.90;;;;;;4900618;28;20230;-73
2020/12/22 00:08:13;;;;;;;0.77;0.77;;;9.40;99.90;;;;;;4903558;29;20308;-73
2020/12/22 00:10:39;;;;;;;0.70;0.63;;;9.40;99.90;;;;;;4902288;29;20278;-73
2020/12/22 00:13:04;;;;;;;0.60;0.57;;;9.40;99.90;;;;;;4915713;29;20468;-73
2020/12/22 00:15:30;;;;;;;0.40;0.40;;;9.50;99.90;;;;;;4902909;29;20239;-73
2020/12/22 00:17:56;;;;;;;0.50;0.50;;;9.50;99.90;;;;;;4894216;29;20274;-73
2020/12/22 00:20:21;;;;;;;0.50;0.40;;;9.50;99.90;;;;;;4916297;28;20225;-73
2020/12/22 00:22:51;;;;;;;0.50;0.40;;;9.50;99.90;;;;;;4947758;28;20318;-73
2020/12/22 00:25:17;;;;;;;0.50;0.50;;;9.50;99.90;;;;;;4903680;29;20231;-73
2020/12/22 00:27:42;;;;;;;0.50;0.30;;;9.60;99.90;;;;;;4901781;28;20542;-73
2020/12/22 00:30:08;;;;;;;0.40;0.33;;;9.60;99.90;;;;;;4896047;28;20463;-73
2020/12/22 00:32:35;;;;;;;0.40;0.33;;;9.60;99.90;;;;;;4904599;29;20252;-73
2020/12/22 00:35:01;;;;;;;0.50;0.50;;;9.60;99.90;;;;;;4918611;29;20237;-73
2020/12/22 00:37:27;;;;;;;0.43;0.43;;;9.60;99.90;;;;;;4903599;28;20542;-72
2020/12/22 00:39:53;;;;;;;0.57;0.43;;;9.70;99.90;;;;;;4913771;28;20238;-72
2020/12/22 00:42:18;;;;;;;0.57;0.50;;;9.70;99.90;;;;;;4904071;28;20315;-72
2020/12/22 00:44:45;;;;;;;0.40;0.40;;;9.70;99.90;;;;;;4922427;28;20218;-73
2020/12/22 00:47:11;;;;;;;0.77;0.77;;;9.70;99.90;;;;;;4937498;28;20533;-72
2020/12/22 00:49:37;;;;;;;0.80;0.80;;;9.70;99.90;;;;;;4923828;28;20222;-72
2020/12/22 00:52:03;;;;;;;0.63;0.53;;;9.70;99.90;;;;;;4920051;29;20455;-72
2020/12/22 00:54:28;;;;;;;0.43;0.43;;;9.80;99.90;;;;;;4916107;29;20364;-73
2020/12/22 00:56:55;;;;;;;0.50;0.50;;;9.80;99.90;;;;;;4902868;29;20694;-73
2020/12/22 00:59:35;;;;;;;0.50;0.50;;;9.80;99.90;;;;;;4913632;28;20700;-72
2020/12/22 01:02:05;;;;;;;0.50;0.50;;;9.80;99.90;;;;;;4936309;28;20447;-73
2020/12/22 01:04:32;;;;;;;0.80;0.77;;;9.80;99.90;;;;;;4918891;29;20851;-73
2020/12/22 01:06:58;;;;;;;0.70;0.70;;;9.90;99.90;;;;;;4932027;28;20455;-73
2020/12/22 01:09:24;;;;;;;0.80;0.70;;;9.90;99.90;;;;;;4909687;29;20474;-73
2020/12/22 01:11:49;;;;;;;0.60;0.60;;;9.90;99.90;;;;;;4948782;28;20310;-72
2020/12/22 01:14:15;;;;;;;0.63;0.63;;;9.90;99.90;;;;;;4934149;29;20606;-73
2020/12/22 01:16:41;;;;;;;0.90;0.90;;;10.00;99.90;;;;;;4919948;28;20224;-73
2020/12/22 01:19:06;;;;;;;0.63;0.63;;;10.00;99.90;;;;;;4919905;29;20582;-73
2020/12/22 01:21:32;;;;;;;0.60;0.60;;;10.00;99.90;;;;;;4905927;29;20784;-73
2020/12/22 01:23:58;;;;;;;0.67;0.67;;;10.00;99.90;;;;;;4880560;29;20236;-73
2020/12/22 01:26:25;;;;;;;1.07;0.80;;;10.00;99.90;;;;;;4922021;29;20253;-73
2020/12/22 01:28:52;;;;;;;0.90;0.90;;;10.00;99.90;;;;;;4927346;28;20227;-73
2020/12/22 01:31:26;;;;;;;0.60;0.60;;;10.10;99.90;;;;;;4927029;29;20558;-73
2020/12/22 01:33:53;;;;;;;1.13;0.87;;;10.10;99.90;;;;;;4918854;29;20511;-73
2020/12/22 01:36:20;;;;;;;0.70;0.70;;;10.10;99.90;;;;;;4937636;29;20467;-73
2020/12/22 01:38:46;;;;;;;0.60;0.60;;;10.10;99.90;;;;;;4937385;28;20461;-73
2020/12/22 01:41:13;;;;;;;0.57;0.57;;;10.10;99.90;;;;;;4936927;29;21029;-73
2020/12/22 01:43:39;;;;;;;1.10;1.00;;;10.10;99.90;;;;;;4919946;29;20518;-73
2020/12/22 01:46:05;;;;;;;0.50;0.50;;;10.10;99.90;;;;;;4936798;28;20463;-73
2020/12/22 01:48:32;;;;;;;0.60;0.50;;;10.10;99.90;;;;;;4905282;29;20535;-73
2020/12/22 01:50:58;;;;;;;0.40;0.40;;;10.20;99.90;;;;;;4927805;28;20242;-73
2020/12/22 01:53:24;;;;;;;0.70;0.60;;;10.20;99.90;;;;;;4921299;29;20464;-73
2020/12/22 01:55:50;;;;;;;0.60;0.60;;;10.20;99.90;;;;;;4936892;28;20459;-73
2020/12/22 01:58:16;;;;;;;0.67;0.67;;;10.20;99.90;;;;;;4921890;28;20227;-73
2020/12/22 02:00:42;;;;;;;0.73;0.73;;;10.20;99.90;;;;;;4907812;29;20254;-73
2020/12/22 02:03:08;;;;;;;0.70;0.67;;;10.20;99.90;;;;;;4901909;28;20661;-73
2020/12/22 02:05:37;;;;;;;0.70;0.70;;;10.20;99.90;;;;;;4942697;28;20455;-73
2020/12/22 02:08:03;;;;;;;0.77;0.60;;;10.20;99.90;;;;;;4906258;29;20456;-73
2020/12/22 02:10:29;;;;;;;0.60;0.60;;;10.30;99.90;;;;;;4929637;29;20467;-73
2020/12/22 02:12:54;;;;;;;0.90;0.70;;;10.30;99.90;;;;;;4917113;29;20456;-73
2020/12/22 02:15:20;;;;;;;1.23;0.70;;;10.30;99.90;;;;;;4889436;28;20220;-73
2020/12/22 02:17:46;;;;;;;0.83;0.60;;;10.30;99.90;;;;;;4914763;29;20230;-73
2020/12/22 02:20:12;;;;;;;0.70;0.60;;;10.30;99.90;;;;;;4897215;29;20592;-73
2020/12/22 02:22:39;;;;;;;0.50;0.50;;;10.30;99.90;;;;;;4903694;29;20224;-73
2020/12/22 02:25:20;;;;;;;0.40;0.30;;;10.30;99.90;;;;;;4951740;28;20459;-73
2020/12/22 02:27:46;;;;;;;0.47;0.43;;;10.30;99.90;;;;;;4931714;29;20456;-72
2020/12/22 02:30:12;;;;;;;0.50;0.50;;;10.30;99.90;;;;;;4900651;29;20940;-72
2020/12/22 02:32:38;;;;;;;0.50;0.50;;;10.30;99.90;;;;;;4880860;28;20230;-73
2020/12/22 02:35:04;;;;;;;0.70;0.50;;;10.30;99.90;;;;;;4885677;28;20679;-70
2020/12/22 02:37:30;;;;;;;1.27;0.70;;;10.30;99.90;;;;;;4917395;28;20314;-73
2020/12/22 02:39:56;;;;;;;0.40;0.30;;;10.30;99.90;;;;;;4927843;29;20531;-74
2020/12/22 02:42:22;;;;;;;0.50;0.40;;;10.30;99.90;;;;;;4929897;29;20231;-74
2020/12/22 02:44:47;;;;;;;0.53;0.40;;;10.30;99.90;;;;;;4920251;29;20279;-74
2020/12/22 02:47:15;;;;;;;0.40;0.40;;;10.40;99.90;;;;;;4924986;29;20552;-74
2020/12/22 02:49:41;;;;;;;0.40;0.30;;;10.40;99.90;;;;;;4935763;29;20239;-73
2020/12/22 02:52:08;;;;;;;0.50;0.40;;;10.40;99.90;;;;;;4920416;29;20443;-74
2020/12/22 02:54:34;;;;;;;1.03;0.53;;;10.40;99.90;;;;;;4893375;29;20451;-74
2020/12/22 02:57:00;;;;;;;1.27;0.37;;;10.40;99.90;;;;;;4936590;29;21007;-74
2020/12/22 02:59:26;;;;;;;0.40;0.30;;;10.40;99.90;;;;;;4920111;28;20561;-73
2020/12/22 03:01:52;;;;;;;0.40;0.30;;;10.40;99.90;;;;;;4913046;28;21003;-74
2020/12/22 03:04:17;;;;;;;0.40;0.30;;;10.40;99.90;;;;;;4921191;29;20235;-74
2020/12/22 03:06:43;;;;;;;0.40;0.40;;;10.40;99.90;;;;;;4941524;28;20323;-72
2020/12/22 03:09:09;;;;;;;0.63;0.50;;;10.40;99.90;;;;;;4938291;28;20321;-73
2020/12/22 03:11:35;;;;;;;0.40;0.40;;;10.50;99.90;;;;;;4919587;29;20220;-74
2020/12/22 03:14:01;;;;;;;0.90;0.57;;;10.40;99.90;;;;;;4905708;29;20288;-74
2020/12/22 03:16:27;;;;;;;0.60;0.60;;;10.50;99.90;;;;;;4924952;28;20455;-74
2020/12/22 03:18:53;;;;;;;0.50;0.50;;;10.50;99.90;;;;;;4936438;28;21124;-74
2020/12/22 03:21:20;;;;;;;0.57;0.57;;;10.40;99.90;;;;;;4894353;28;20226;-74
2020/12/22 03:23:45;;;;;;;0.90;0.50;;;10.50;99.90;;;;;;4924518;28;20232;-73
2020/12/22 03:26:11;;;;;;;0.70;0.50;;;10.60;99.90;;;;;;4923962;28;20458;-74
2020/12/22 03:28:37;;;;;;;0.50;0.50;;;10.60;99.90;;;;;;4922586;29;20694;-74
2020/12/22 03:31:02;;;;;;;0.50;0.40;;;10.60;99.90;;;;;;4932560;28;20219;-74
2020/12/22 03:33:28;;;;;;;0.80;0.43;;;10.60;99.90;;;;;;4908481;28;20711;-74
2020/12/22 03:35:54;;;;;;;0.53;0.47;;;10.60;99.90;;;;;;4893542;28;20603;-74
2020/12/22 03:38:20;;;;;;;0.60;0.53;;;10.60;99.90;;;;;;4939793;28;20219;-73
2020/12/22 03:40:46;;;;;;;0.50;0.50;;;10.60;99.90;;;;;;4906427;29;20468;-73
2020/12/22 03:43:12;;;;;;;0.60;0.60;;;10.60;99.90;;;;;;4894569;28;20540;-74
2020/12/22 03:45:42;;;;;;;0.60;0.60;;;10.60;99.90;;;;;;4941313;28;20246;-74
2020/12/22 03:48:08;;;;;;;0.40;0.40;;;10.60;99.90;;;;;;4926675;28;20766;-74
2020/12/22 03:50:34;;;;;;;0.40;0.40;;;10.60;99.90;;;;;;4909562;29;20522;-74
2020/12/22 03:53:00;;;;;;;0.43;0.43;;;10.60;99.90;;;;;;4907461;28;20227;-74
2020/12/22 03:55:26;;;;;;;0.40;0.40;;;10.60;99.90;;;;;;4928219;29;20220;-74
2020/12/22 03:57:51;;;;;;;0.80;0.67;;;10.60;99.90;;;;;;4935433;28;20523;-74
2020/12/22 04:00:17;;;;;;;0.40;0.40;;;10.60;99.90;;;;;;4913898;28;20226;-74
2020/12/22 04:02:43;;;;;;;0.40;0.40;;;10.60;99.90;;;;;;4914128;28;20287;-74
2020/12/22 04:05:10;;;;;;;0.70;0.70;;;10.70;99.90;;;;;;4919046;28;20266;-74
2020/12/22 04:07:36;;;;;;;0.50;0.40;;;10.70;99.90;;;;;;4955326;28;20720;-74
2020/12/22 04:10:06;;;;;;;0.70;0.50;;;10.70;99.90;;;;;;4927149;28;20534;-74
2020/12/22 04:12:32;;;;;;;0.47;0.47;;;10.70;99.90;;;;;;4921036;29;20490;-74
2020/12/22 04:14:58;;;;;;;0.50;0.50;;;10.70;99.90;;;;;;4947527;28;20469;-74
2020/12/22 04:17:24;;;;;;;0.47;0.47;;;10.70;99.90;;;;;;4957955;28;20967;-75
2020/12/22 04:19:49;;;;;;;0.50;0.50;;;10.80;99.90;;;;;;4929632;28;20215;-74
2020/12/22 04:22:15;;;;;;;0.70;0.50;;;10.80;99.90;;;;;;4904020;28;20228;-74
2020/12/22 04:24:41;;;;;;;0.40;0.30;;;10.80;99.90;;;;;;4911871;28;20237;-74
2020/12/22 04:27:06;;;;;;;0.40;0.40;;;10.80;99.90;;;;;;4926126;29;20697;-74
2020/12/22 04:29:32;;;;;;;0.40;0.30;;;10.80;99.90;;;;;;4929539;28;20758;-74
2020/12/22 04:31:58;;;;;;;0.40;0.30;;;10.80;99.90;;;;;;4923691;28;20228;-74
2020/12/22 04:34:25;;;;;;;0.40;0.30;;;10.90;99.90;;;;;;4937218;28;20269;-74
2020/12/22 04:36:51;;;;;;;0.40;0.40;;;10.80;99.90;;;;;;4895218;29;20690;-74
2020/12/22 04:39:17;;;;;;;0.43;0.43;;;10.90;99.90;;;;;;4907762;29;20461;-74
2020/12/22 04:41:48;;;;;;;0.37;0.30;;;10.90;99.90;;;;;;4938241;29;20528;-74
2020/12/22 04:44:15;;;;;;;0.40;0.40;;;10.90;99.90;;;;;;4918469;28;20287;-74
2020/12/22 04:46:42;;;;;;;0.50;0.40;;;10.90;99.90;;;;;;4903966;29;20547;-74
2020/12/22 04:49:10;;;;;;;0.50;0.40;;;11.00;99.90;;;;;;4927810;29;20906;-74
2020/12/22 04:51:37;;;;;;;0.40;0.40;;;11.00;99.90;;;;;;4914384;29;20547;-74
2020/12/22 04:54:07;;;;;;;0.40;0.40;;;11.00;99.90;;;;;;4914228;29;20472;-73
2020/12/22 04:56:33;;;;;;;0.50;0.30;;;11.00;99.90;;;;;;4911549;29;20456;-73
2020/12/22 04:58:58;;;;;;;0.50;0.30;;;11.00;99.90;;;;;;4900519;29;20453;-73
2020/12/22 05:01:25;;;;;;;0.40;0.40;;;11.00;99.90;;;;;;4900750;29;20961;-74
2020/12/22 05:03:51;;;;;;;0.40;0.30;;;11.00;99.90;;;;;;4920964;29;20693;-74
2020/12/22 05:06:16;;;;;;;0.40;0.30;;;11.00;99.90;;;;;;4902449;29;20460;-74
2020/12/22 05:08:42;;;;;;;0.70;0.50;;;11.00;99.90;;;;;;4902790;29;20220;-73
2020/12/22 05:11:15;;;;;;;0.50;0.40;;;11.00;99.90;;;;;;4919501;29;20316;-73
2020/12/22 05:13:41;;;;;;;0.40;0.30;;;11.00;99.90;;;;;;4929094;29;20228;-73
2020/12/22 05:16:09;;;;;;;0.50;0.40;;;11.00;99.90;;;;;;4930193;29;20535;-73
2020/12/22 05:18:35;;;;;;;0.40;0.40;;;11.10;99.90;;;;;;4929144;29;20238;-73
2020/12/22 05:21:01;;;;;;;2.00;1.83;;;11.10;99.90;;;;;;4897450;29;20542;-74
2020/12/22 05:23:29;;;;;;;10.40;6.50;;;11.10;99.90;;;;;;4929322;29;20475;-73
2020/12/22 05:25:57;;;;;;;4.47;3.20;;;11.10;99.90;;;;;;4916956;29;20597;-71
2020/12/22 05:28:22;;;;;;;2.00;1.90;;;11.10;99.90;;;;;;4926944;29;20456;-71
2020/12/22 05:30:50;;;;;;;1.60;1.50;;;11.10;99.90;;;;;;4913685;29;20609;-72
2020/12/22 05:33:16;;;;;;;0.63;0.63;;;11.20;99.90;;;;;;4911234;29;20642;-71
2020/12/22 05:35:44;;;;;;;1.00;1.00;;;11.20;99.90;;;;;;4918255;29;20463;-72
2020/12/22 05:38:12;;;;;;;0.70;0.70;;;11.10;99.90;;;;;;4891040;29;20539;-71
2020/12/22 05:40:40;;;;;;;0.80;0.80;;;11.10;99.90;;;;;;4920940;28;20521;-73
2020/12/22 05:43:06;;;;;;;0.60;0.60;;;11.20;99.90;;;;;;4921007;29;20495;-73
2020/12/22 05:45:33;;;;;;;0.60;0.60;;;11.10;99.90;;;;;;4922459;29;20490;-72
2020/12/22 05:47:59;;;;;;;0.50;0.50;;;11.10;99.90;;;;;;4921752;29;20456;-72
2020/12/22 05:50:25;;;;;;;0.70;0.50;;;11.20;99.90;;;;;;4921516;29;20472;-72
2020/12/22 05:52:53;;;;;;;0.60;0.57;;;11.20;99.90;;;;;;4905081;28;20470;-71
2020/12/22 05:55:29;;;;;;;0.40;0.40;;;11.20;99.90;;;;;;4921878;29;20471;-72
2020/12/22 05:58:09;;;;;;;0.77;0.50;;;11.20;99.90;;;;;;4921155;29;20475;-71
2020/12/22 06:00:36;;;;;;;0.53;0.53;;;11.20;99.90;;;;;;4920955;28;20460;-72
2020/12/22 06:03:06;;;;;;;0.40;0.30;;;11.20;99.90;;;;;;4921506;29;21036;-71
2020/12/22 06:05:38;;;;;;;0.40;0.40;;;11.20;99.90;;;;;;4921411;29;20464;-71
2020/12/22 06:08:05;;;;;;;0.50;0.50;;;11.20;99.90;;;;;;4937471;29;20527;-72
2020/12/22 06:10:31;;;;;;;0.63;0.50;;;11.20;99.90;;;;;;4905742;29;20530;-72
2020/12/22 06:12:59;;;;;;;0.43;0.40;;;11.20;99.90;;;;;;4920861;29;20826;-72
2020/12/22 06:15:25;;;;;;;0.50;0.33;;;11.20;99.90;;;;;;4921743;29;20488;-71
2020/12/22 06:17:51;;;;;;;0.40;0.30;;;11.20;99.90;;;;;;4921202;28;20502;-72
2020/12/22 06:20:22;;;;;;;0.40;0.30;;;11.20;99.90;;;;;;4921176;29;20968;-73
2020/12/22 06:22:49;;;;;;;0.40;0.30;;;11.20;99.90;;;;;;4918248;29;20485;-73
2020/12/22 06:25:20;;;;;;;0.40;0.40;;;11.20;99.90;;;;;;4921254;29;20459;-71
2020/12/22 06:27:47;;;;;;;0.40;0.30;;;11.20;99.90;;;;;;4921306;29;20463;-72
2020/12/22 06:30:17;;;;;;;0.40;0.40;;;11.20;99.90;;;;;;4921022;29;20459;-71
2020/12/22 06:32:43;;;;;;;0.67;0.67;;;11.20;99.90;;;;;;4920697;29;20542;-71
2020/12/22 06:35:29;;;;;;;0.60;0.60;;;11.20;99.90;;;;;;4921212;29;20470;-71
2020/12/22 06:37:55;;;;;;;0.50;0.50;;;11.20;99.90;;;;;;4920841;29;20447;-71
2020/12/22 06:40:51;;;;;;;0.50;0.40;;;11.20;99.90;;;;;;4920808;29;20510;-72
2020/12/22 06:43:42;;;;;;;0.50;0.50;;;11.20;99.90;;;;;;4902924;29;20476;-71
2020/12/22 06:46:27;;;;;;;0.47;0.33;;;11.20;99.90;;;;;;4922376;29;20893;-73
2020/12/22 06:48:53;;;;;;;0.43;0.43;;;11.20;99.90;;;;;;4922941;29;21466;-71
2020/12/22 06:51:26;;;;;;;1.63;1.50;;;11.20;99.90;;;;;;4889415;29;20464;-71
2020/12/22 06:53:52;;;;;;;5.50;3.70;;;11.20;99.90;;;;;;4920453;29;20299;-71
2020/12/22 06:56:54;;;;;;;5.50;3.60;;;11.30;99.90;;;;;;4904895;29;20539;-71
2020/12/22 06:59:42;;;;;;;1.90;1.80;;;11.30;99.90;;;;;;4932999;29;20253;-74
2020/12/22 07:02:36;;;;;;;1.77;1.67;;;11.30;99.90;;;;;;4935686;28;20459;-73
2020/12/22 07:05:05;;;;;;;1.40;1.30;;;11.30;99.90;;;;;;4905127;29;20513;-71
2020/12/22 07:07:57;;;;;;;1.60;1.50;;;11.30;99.90;;;;;;4905260;29;20456;-71
2020/12/22 07:10:26;;;;;;;0.60;0.57;;;11.30;99.90;;;;;;4929600;29;20457;-72
2020/12/22 07:12:54;;;;;;;0.90;0.90;;;11.30;99.90;;;;;;4916804;29;20492;-71
2020/12/22 07:15:20;;;;;;;0.93;0.73;;;11.30;99.90;;;;;;4933154;29;20476;-71
2020/12/22 07:17:46;;;;;;;0.93;0.93;;;11.30;99.90;;;;;;4934808;28;20558;-72
2020/12/22 07:20:12;;;;;;;0.83;0.83;;;11.30;99.90;;;;;;4904564;29;20244;-72
2020/12/22 07:22:37;;;;;;;1.47;1.37;;;11.40;99.90;;;;;;4919611;28;20228;-72
2020/12/22 07:25:04;;;;;;;1.80;1.70;;;11.30;99.90;;;;;;4919642;29;20458;-71
2020/12/22 07:27:32;;;;;;;2.63;1.90;;;11.30;99.90;;;;;;4920401;29;20222;-72
2020/12/22 07:29:57;;;;;;;2.27;1.50;;;11.30;99.90;;;;;;4903909;29;20792;-71
2020/12/22 07:32:24;;;;;;;1.80;1.70;;;11.30;99.90;;;;;;4953011;28;20502;-72
2020/12/22 07:34:50;;;;;;;1.30;1.20;;;11.40;99.90;;;;;;4919201;28;20223;-71
2020/12/22 07:37:15;;;;;;;1.10;1.03;;;11.30;99.90;;;;;;4936092;29;20446;-73
2020/12/22 07:39:41;;;;;;;0.90;0.90;;;11.30;99.90;;;;;;4912151;28;20231;-71
2020/12/22 07:42:15;;;;;;;0.97;0.87;;;11.40;99.90;;;;;;4918893;28;20246;-71
2020/12/22 07:44:42;;;;;;;0.53;0.50;;;11.40;99.90;;;;;;4919036;29;20236;-74
2020/12/22 07:47:09;;;;;;;0.93;0.93;;;11.40;99.90;;;;;;4888545;29;20957;-75
2020/12/22 07:49:36;;;;;;;0.90;0.90;;;11.40;99.90;;;;;;4884649;29;20475;-72
2020/12/22 07:52:02;;;;;;;1.00;1.00;;;11.40;99.90;;;;;;4900657;29;20471;-72
2020/12/22 07:54:28;;;;;;;1.13;1.03;;;11.40;99.90;;;;;;4918758;28;20494;-71
2020/12/22 07:56:58;;;;;;;0.70;0.67;;;11.40;99.90;;;;;;4887288;28;20826;-72
2020/12/22 07:59:25;;;;;;;0.77;0.77;;;11.40;99.90;;;;;;4919134;29;20228;-72
2020/12/22 08:01:51;;;;;;;0.87;0.87;;;11.50;99.90;;;;;;4915069;29;20496;-72
2020/12/22 08:04:19;;;;;;;1.23;0.70;;;11.50;99.90;;;;;;4900478;29;20568;-71
2020/12/22 08:07:07;;;;;;;1.73;1.60;;;11.50;99.90;;;;;;4902739;29;20451;-71
2020/12/22 08:09:34;;;;;;;1.13;1.10;;;11.50;99.90;;;;;;4918899;29;20464;-72
2020/12/22 08:12:02;;;;;;;1.03;0.93;;;11.50;99.90;;;;;;4932165;29;20463;-72
2020/12/22 08:14:30;;;;;;;0.87;0.87;;;11.50;99.90;;;;;;4903743;29;20531;-72
2020/12/22 08:17:00;;;;;;;0.70;0.70;;;11.60;99.90;;;;;;4918547;28;20530;-72
2020/12/22 08:19:29;;;;;;;0.60;0.60;;;11.60;99.90;;;;;;4935160;29;20467;-72
2020/12/22 08:21:56;;;;;;;1.57;0.77;;;11.60;99.90;;;;;;4887853;28;20830;-72
2020/12/22 08:24:23;;;;;;;0.60;0.60;;;11.60;99.90;;;;;;4918866;29;20523;-72
2020/12/22 08:26:50;;;;;;;0.50;0.50;;;11.60;99.90;;;;;;4903038;28;20495;-72
2020/12/22 08:29:17;;;;;;;1.33;0.60;;;11.60;99.90;;;;;;4922921;29;20458;-71
2020/12/22 08:31:55;;;;;;;0.60;0.60;;;11.60;99.90;;;;;;4936810;29;21008;-72
2020/12/22 08:34:20;;;;;;;0.63;0.63;;;11.60;99.90;;;;;;4923052;29;20466;-72
2020/12/22 08:36:47;;;;;;;0.87;0.87;;;11.70;99.90;;;;;;4922369;28;20460;-72
2020/12/22 08:39:16;;;;;;;0.97;0.97;;;11.70;99.90;;;;;;4892254;29;20229;-72
2020/12/22 08:41:43;;;;;;;8.57;5.30;;;11.70;99.90;;;;;;4907119;29;20835;-72
2020/12/22 08:44:11;;;;;;;2.13;1.43;;;11.70;99.90;;;;;;4938454;29;21064;-73
2020/12/22 08:46:38;;;;;;;0.77;0.77;;;11.70;99.90;;;;;;4922469;29;20470;-71
2020/12/22 08:49:20;;;;;;;1.00;0.90;;;11.70;99.90;;;;;;4917473;29;20460;-73
2020/12/22 08:51:47;;;;;;;0.80;0.63;;;11.80;99.90;;;;;;4889100;29;20558;-71
2020/12/22 08:54:14;;;;;;;0.40;0.40;;;11.80;99.90;;;;;;4904009;28;20459;-72
2020/12/22 08:56:40;;;;;;;0.80;0.50;;;11.80;99.90;;;;;;4906576;28;20467;-72
2020/12/22 08:59:08;;;;;;;0.53;0.50;;;11.80;99.90;;;;;;4923085;29;20458;-73
2020/12/22 09:01:47;;;;;;;0.60;0.57;;;11.80;99.90;;;;;;4937712;29;20523;-72
2020/12/22 09:04:14;;;;;;;0.40;0.40;;;11.80;99.90;;;;;;4938169;29;20471;-72
2020/12/22 09:06:46;;;;;;;0.57;0.53;;;11.90;99.90;;;;;;4906507;29;20538;-71
2020/12/22 09:09:27;;;;;;;0.50;0.37;;;11.80;99.90;;;;;;4922807;29;20459;-72
2020/12/22 09:12:06;;;;;;;0.63;0.63;;;11.90;99.90;;;;;;4921780;29;20467;-71
2020/12/22 09:14:43;;;;;;;0.60;0.60;;;11.90;99.90;;;;;;4922652;29;20474;-71
2020/12/22 09:17:10;;;;;;;0.70;0.70;;;11.90;99.90;;;;;;4906732;29;20980;-72
2020/12/22 09:19:49;;;;;;;0.57;0.57;;;11.90;99.90;;;;;;4937665;29;20459;-72
2020/12/22 09:22:20;;;;;;;1.00;0.70;;;11.90;99.90;;;;;;4922504;28;20452;-72
2020/12/22 09:24:51;;;;;;;0.70;0.70;;;12.00;99.90;;;;;;4922005;29;20475;-71
2020/12/22 09:27:17;;;;;;;0.60;0.60;;;12.00;99.90;;;;;;4937731;29;20455;-72
2020/12/22 09:29:42;;;;;;;0.50;0.50;;;12.00;99.90;;;;;;4921854;28;20458;-72
2020/12/22 09:32:10;;;;;;;0.40;0.40;;;12.00;99.90;;;;;;4891131;29;20226;-72
2020/12/22 09:34:37;;;;;;;0.50;0.50;;;12.00;99.90;;;;;;4921302;29;20224;-71
2020/12/22 09:37:08;;;;;;;0.90;0.80;;;12.00;99.90;;;;;;4922010;29;20447;-73
2020/12/22 09:39:35;;;;;;;0.93;0.93;;;12.00;99.90;;;;;;4920802;29;20499;-72
2020/12/22 09:42:02;;;;;;;1.57;1.47;;;12.00;99.90;;;;;;4921447;28;20460;-73
2020/12/22 09:44:28;;;;;;;1.53;1.43;;;12.00;99.90;;;;;;4921239;29;20479;-72
2020/12/22 09:46:55;;;;;;;1.00;1.00;;;12.00;99.90;;;;;;4919454;29;20464;-73
2020/12/22 09:49:21;;;;;;;0.70;0.70;;;12.00;99.90;;;;;;4900192;28;20242;-71
2020/12/22 09:51:48;;;;;;;1.03;0.93;;;12.00;99.90;;;;;;4902790;28;20471;-73
2020/12/22 09:54:13;;;;;;;1.03;1.03;;;12.00;99.90;;;;;;4915691;29;21300;-72
2020/12/22 09:56:39;;;;;;;1.00;1.00;;;12.10;99.90;;;;;;4916583;28;20469;-73
2020/12/22 09:59:05;;;;;;;0.83;0.83;;;12.10;99.90;;;;;;4913673;29;20655;-72
2020/12/22 10:01:31;;;;;;;0.60;0.60;;;12.10;99.90;;;;;;4901658;28;20463;-72
2020/12/22 10:03:57;;;;;;;2.17;2.07;;;12.10;99.90;;;;;;4927636;28;20224;-72
2020/12/22 10:06:25;;;;;;;2.83;2.63;;;12.10;99.90;;;;;;4911729;28;20835;-72
2020/12/22 10:08:52;;;;;;;7.60;5.60;;;12.10;99.90;;;;;;4915827;28;20223;-71
2020/12/22 10:11:19;;;;;;;16.80;12.80;;;12.10;99.90;;;;;;4919333;28;20467;-72
2020/12/22 10:13:45;;;;;;;32.80;21.80;;;12.10;99.90;;;;;;4930631;29;20550;-72
2020/12/22 10:16:16;;;;;;;20.57;15.00;;;12.20;99.90;;;;;;4919167;29;20463;-72
2020/12/22 10:18:42;;;;;;;10.30;8.50;;;12.20;99.90;;;;;;4909976;28;20499;-72
2020/12/22 10:21:15;;;;;;;7.17;5.60;;;12.20;99.90;;;;;;4911848;29;20456;-72
2020/12/22 10:23:42;;;;;;;4.77;4.37;;;12.20;99.90;;;;;;4892570;28;20471;-73
2020/12/22 10:26:10;;;;;;;5.90;5.40;;;12.20;99.90;;;;;;4935409;28;20451;-72
2020/12/22 10:28:37;;;;;;;5.67;5.27;;;12.30;99.90;;;;;;4918622;28;20459;-72
2020/12/22 10:31:03;;;;;;;4.80;4.40;;;12.30;99.90;;;;;;4899043;29;20467;-72
2020/12/22 10:33:29;;;;;;;2.53;2.43;;;12.30;99.90;;;;;;4921634;28;20474;-73
2020/12/22 10:36:05;;;;;;;1.83;1.73;;;12.30;99.90;;;;;;4915786;29;20456;-75
2020/12/22 10:38:31;;;;;;;2.80;2.60;;;12.40;99.90;;;;;;4916170;29;20479;-73
2020/12/22 10:40:57;;;;;;;6.37;5.47;;;12.40;99.90;;;;;;4889808;29;20449;-73
2020/12/22 10:43:22;;;;;;;6.23;5.63;;;12.40;99.90;;;;;;4918828;29;20796;-72
2020/12/22 10:45:48;;;;;;;5.87;5.30;;;12.40;99.90;;;;;;4885339;29;20303;-72
2020/12/22 10:48:14;;;;;;;5.23;4.73;;;12.50;99.90;;;;;;4885936;29;20216;-74
2020/12/22 10:50:40;;;;;;;15.97;9.60;;;12.50;99.90;;;;;;4920370;28;20685;-73
2020/12/22 10:53:09;;;;;;;11.60;8.03;;;12.60;99.90;;;;;;4918654;29;20494;-72
2020/12/22 10:55:35;;;;;;;11.90;7.23;;;12.60;99.90;;;;;;4914374;28;20466;-74
2020/12/22 10:58:02;;;;;;;4.17;3.77;;;12.60;99.90;;;;;;4912880;29;20522;-72
2020/12/22 11:00:28;;;;;;;2.47;2.23;;;12.70;99.90;;;;;;4928365;29;20511;-74
2020/12/22 11:02:55;;;;;;;2.87;2.43;;;12.70;99.90;;;;;;4900427;28;20476;-72
2020/12/22 11:08:07;;;;;;;6.60;5.23;;;12.70;99.90;;;;;;4930768;28;20452;-74
2020/12/22 11:10:33;;;;;;;3.87;3.40;;;12.70;99.90;;;;;;4932307;28;20459;-73
2020/12/22 11:12:58;;;;;;;7.57;4.40;;;12.80;99.90;;;;;;4910257;29;20456;-72
2020/12/22 11:15:24;;;;;;;10.00;7.53;;;12.80;99.90;;;;;;4903254;28;20477;-73
2020/12/22 11:17:50;;;;;;;9.40;8.40;;;12.80;99.90;;;;;;4907317;28;20306;-73
2020/12/22 11:20:16;;;;;;;6.57;5.97;;;12.90;99.90;;;;;;4917943;28;20248;-75
2020/12/22 11:22:42;;;;;;;4.17;3.80;;;12.90;99.90;;;;;;4917765;28;20724;-74
2020/12/22 11:25:08;;;;;;;1.90;1.77;;;12.90;99.90;;;;;;4901202;29;20448;-73
2020/12/22 11:27:33;;;;;;;1.20;1.20;;;12.90;99.90;;;;;;4904198;29;20272;-72
2020/12/22 11:29:59;;;;;;;1.63;1.53;;;13.00;99.90;;;;;;4902946;29;20708;-73
2020/12/22 11:32:25;;;;;;;1.00;1.00;;;13.00;99.90;;;;;;4881722;29;20235;-76
2020/12/22 11:34:50;;;;;;;1.10;1.00;;;13.00;99.90;;;;;;4905139;28;20236;-75
2020/12/22 11:37:16;;;;;;;0.70;0.70;;;13.00;99.90;;;;;;4914114;28;20220;-73
2020/12/22 11:39:42;;;;;;;0.93;0.93;;;13.00;99.90;;;;;;4910483;29;20223;-72
2020/12/22 11:42:08;;;;;;;0.73;0.73;;;13.10;99.90;;;;;;4916965;28;20215;-73
2020/12/22 11:44:34;;;;;;;0.70;0.70;;;13.10;99.90;;;;;;4917919;28;20235;-72
2020/12/22 11:47:00;;;;;;;1.00;1.00;;;13.10;99.90;;;;;;4930907;28;20449;-73
2020/12/22 11:49:27;;;;;;;0.80;0.80;;;13.10;99.90;;;;;;4918447;29;20244;-74
2020/12/22 11:51:57;;;;;;;1.93;1.10;;;13.10;99.90;;;;;;4903599;29;20235;-73
2020/12/22 11:54:23;;;;;;;6.40;4.97;;;13.10;99.90;;;;;;4919475;29;20468;-72
2020/12/22 11:56:49;;;;;;;11.13;7.77;;;13.10;99.90;;;;;;4919303;28;20460;-73
2020/12/22 11:59:16;;;;;;;3.30;3.00;;;13.10;99.90;;;;;;4919127;29;20467;-73
2020/12/22 12:01:41;;;;;;;1.50;1.40;;;13.10;99.90;;;;;;4910075;28;20590;-75
2020/12/22 12:04:07;;;;;;;1.40;1.30;;;13.10;99.90;;;;;;4909033;28;20468;-74
2020/12/22 12:06:33;;;;;;;1.53;1.43;;;13.10;99.90;;;;;;4883803;29;20275;-74
2020/12/22 12:08:58;;;;;;;1.60;1.50;;;13.10;99.90;;;;;;4913682;28;20219;-72
2020/12/22 12:11:24;;;;;;;1.87;1.77;;;13.10;99.90;;;;;;4906345;28;20700;-73
2020/12/22 12:13:50;;;;;;;1.87;1.77;;;13.20;99.90;;;;;;4906372;28;20227;-73
2020/12/22 12:16:17;;;;;;;1.40;1.30;;;13.20;99.90;;;;;;4894170;29;20242;-75
2020/12/22 12:18:43;;;;;;;1.50;1.40;;;13.20;99.90;;;;;;4918214;29;20220;-72
2020/12/22 12:21:14;;;;;;;3.50;1.50;;;13.20;99.90;;;;;;4887873;29;20925;-72
2020/12/22 12:23:39;;;;;;;1.30;1.20;;;13.20;99.90;;;;;;4918536;29;20566;-73
2020/12/22 12:26:05;;;;;;;1.40;1.30;;;13.20;99.90;;;;;;4916032;29;20527;-73
2020/12/22 12:28:31;;;;;;;1.07;1.07;;;13.20;99.90;;;;;;4900590;29;20243;-73
2020/12/22 12:30:57;;;;;;;1.33;1.23;;;13.20;99.90;;;;;;4903421;28;20443;-73
2020/12/22 12:33:23;;;;;;;1.50;1.40;;;13.20;99.90;;;;;;4919019;29;20633;-74
2020/12/22 12:35:48;;;;;;;1.50;1.40;;;13.20;99.90;;;;;;4887127;28;20220;-73
2020/12/22 12:38:14;;;;;;;17.27;11.60;;;13.20;99.90;;;;;;4902010;29;20590;-73
2020/12/22 12:40:40;;;;;;;12.23;9.07;;;13.20;99.90;;;;;;4913665;28;20236;-74
2020/12/22 12:43:05;;;;;;;18.40;13.87;;;13.30;99.90;;;;;;4889178;29;20815;-72
2020/12/22 12:45:32;;;;;;;17.50;13.70;;;13.20;99.90;;;;;;4918841;29;20689;-73
2020/12/22 12:47:58;;;;;;;5.63;4.70;;;13.30;99.90;;;;;;4918550;29;20264;-72
2020/12/22 12:50:24;;;;;;;4.67;4.13;;;13.30;99.90;;;;;;4902984;29;20488;-74
2020/12/22 12:52:50;;;;;;;3.83;3.53;;;13.30;99.90;;;;;;4915070;28;20274;-74